sensor_id;sensor_type;location;lat;lon;timestamp;temperature;humidity
47368;DHT22;34646;47.964;7.982;2023-12-20T00:04:02;15.30;94.20
47368;DHT22;34646;47.964;7.982;2023-12-20T00:10:03;15.30;94.30
47368;DHT22;34646;47.964;7.982;2023-12-20T00:16:04;15.40;94.30
47368;DHT22;34646;47.964;7.982;2023-12-20T00:22:05;15.30;94.30
47368;DHT22;34646;47.964;7.982;2023-12-20T00:28:06;15.20;94.20
47368;DHT22;34646;47.964;7.982;2023-12-20T00:34:07;15.50;94.30
47368;DHT22;34646;47.964;7.982;2023-12-20T00:40:07;15.50;94.10
47368;DHT22;34646;47.964;7.982;2023-12-20T00:46:08;15.20;94.00
47368;DHT22;34646;47.964;7.982;2023-12-20T00:52:09;15.30;94.30
47368;DHT22;34646;47.964;7.982;2023-12-20T00:58:10;15.40;94.30
47368;DHT22;34646;47.964;7.982;2023-12-20T01:04:10;15.40;94.30
47368;DHT22;34646;47.964;7.982;2023-12-20T01:10:11;15.20;94.30
47368;DHT22;34646;47.964;7.982;2023-12-20T01:16:12;15.50;94.40
47368;DHT22;34646;47.964;7.982;2023-12-20T01:22:13;15.40;94.20
47368;DHT22;34646;47.964;7.982;2023-12-20T01:28:13;15.60;94.40
47368;DHT22;34646;47.964;7.982;2023-12-20T01:34:14;15.30;93.90
47368;DHT22;34646;47.964;7.982;2023-12-20T01:40:15;15.20;94.30
47368;DHT22;34646;47.964;7.982;2023-12-20T01:52:17;15.60;94.20
47368;DHT22;34646;47.964;7.982;2023-12-20T01:58:18;15.20;94.10
47368;DHT22;34646;47.964;7.982;2023-12-20T02:04:19;15.60;94.20
47368;DHT22;34646;47.964;7.982;2023-12-20T02:10:20;15.70;94.20
47368;DHT22;34646;47.964;7.982;2023-12-20T02:16:22;15.30;94.10
47368;DHT22;34646;47.964;7.982;2023-12-20T02:22:22;15.50;94.20
47368;DHT22;34646;47.964;7.982;2023-12-20T02:28:23;15.20;94.40
47368;DHT22;34646;47.964;7.982;2023-12-20T02:34:24;15.00;94.10
47368;DHT22;34646;47.964;7.982;2023-12-20T02:40:25;15.60;94.20
47368;DHT22;34646;47.964;7.982;2023-12-20T02:46:25;15.20;94.10
47368;DHT22;34646;47.964;7.982;2023-12-20T02:52:28;15.50;90.50
47368;DHT22;34646;47.964;7.982;2023-12-20T02:58:29;15.40;94.20
47368;DHT22;34646;47.964;7.982;2023-12-20T03:04:29;14.80;94.10
47368;DHT22;34646;47.964;7.982;2023-12-20T03:10:30;15.10;94.40
47368;DHT22;34646;47.964;7.982;2023-12-20T03:16:31;15.20;94.20
47368;DHT22;34646;47.964;7.982;2023-12-20T03:22:33;15.00;94.20
47368;DHT22;34646;47.964;7.982;2023-12-20T03:28:34;15.10;94.30
47368;DHT22;34646;47.964;7.982;2023-12-20T03:34:36;15.40;94.20
47368;DHT22;34646;47.964;7.982;2023-12-20T03:40:37;15.40;94.20
47368;DHT22;34646;47.964;7.982;2023-12-20T03:46:37;15.40;94.50
47368;DHT22;34646;47.964;7.982;2023-12-20T03:52:38;15.20;94.40
47368;DHT22;34646;47.964;7.982;2023-12-20T03:58:39;15.30;94.50
47368;DHT22;34646;47.964;7.982;2023-12-20T04:04:39;15.30;94.50
47368;DHT22;34646;47.964;7.982;2023-12-20T04:10:40;15.10;94.50
47368;DHT22;34646;47.964;7.982;2023-12-20T04:16:41;15.10;94.40
47368;DHT22;34646;47.964;7.982;2023-12-20T04:28:43;15.10;94.20
47368;DHT22;34646;47.964;7.982;2023-12-20T04:34:43;15.10;94.50
47368;DHT22;34646;47.964;7.982;2023-12-20T04:40:44;14.90;94.20
47368;DHT22;34646;47.964;7.982;2023-12-20T04:46:44;14.90;94.40
47368;DHT22;34646;47.964;7.982;2023-12-20T04:52:45;15.10;94.50
47368;DHT22;34646;47.964;7.982;2023-12-20T04:58:46;15.10;94.50
47368;DHT22;34646;47.964;7.982;2023-12-20T05:04:47;15.10;94.30
47368;DHT22;34646;47.964;7.982;2023-12-20T05:10:48;15.50;94.40
47368;DHT22;34646;47.964;7.982;2023-12-20T05:16:48;15.50;94.40
47368;DHT22;34646;47.964;7.982;2023-12-20T05:22:49;14.90;94.20
47368;DHT22;34646;47.964;7.982;2023-12-20T05:28:50;15.00;94.30
47368;DHT22;34646;47.964;7.982;2023-12-20T05:34:50;15.10;94.60
47368;DHT22;34646;47.964;7.982;2023-12-20T05:40:51;15.10;94.70
47368;DHT22;34646;47.964;7.982;2023-12-20T05:46:52;15.40;94.80
47368;DHT22;34646;47.964;7.982;2023-12-20T05:52:52;15.50;94.50
47368;DHT22;34646;47.964;7.982;2023-12-20T05:58:54;15.10;94.40
47368;DHT22;34646;47.964;7.982;2023-12-20T06:04:54;14.80;94.30
47368;DHT22;34646;47.964;7.982;2023-12-20T06:10:55;15.00;94.40
47368;DHT22;34646;47.964;7.982;2023-12-20T06:16:56;15.70;94.60
47368;DHT22;34646;47.964;7.982;2023-12-20T06:22:56;15.50;94.60
47368;DHT22;34646;47.964;7.982;2023-12-20T06:28:57;15.20;94.50
47368;DHT22;34646;47.964;7.982;2023-12-20T06:34:58;15.10;94.50
47368;DHT22;34646;47.964;7.982;2023-12-20T06:40:58;15.20;94.60
47368;DHT22;34646;47.964;7.982;2023-12-20T06:46:59;15.20;94.60
47368;DHT22;34646;47.964;7.982;2023-12-20T06:53:00;15.30;94.60
47368;DHT22;34646;47.964;7.982;2023-12-20T07:05:08;15.10;94.60
47368;DHT22;34646;47.964;7.982;2023-12-20T07:11:09;15.10;94.60
47368;DHT22;34646;47.964;7.982;2023-12-20T07:17:09;15.10;94.60
47368;DHT22;34646;47.964;7.982;2023-12-20T07:23:11;15.20;94.60
47368;DHT22;34646;47.964;7.982;2023-12-20T07:29:12;15.10;94.60
47368;DHT22;34646;47.964;7.982;2023-12-20T07:41:14;15.10;94.60
47368;DHT22;34646;47.964;7.982;2023-12-20T07:59:22;14.90;94.60
47368;DHT22;34646;47.964;7.982;2023-12-20T08:05:23;15.10;94.60
47368;DHT22;34646;47.964;7.982;2023-12-20T08:11:24;15.40;94.70
47368;DHT22;34646;47.964;7.982;2023-12-20T08:23:25;15.10;94.70
47368;DHT22;34646;47.964;7.982;2023-12-20T08:29:26;14.80;94.60
47368;DHT22;34646;47.964;7.982;2023-12-20T08:35:27;14.80;94.60
47368;DHT22;34646;47.964;7.982;2023-12-20T08:41:28;15.00;94.60
47368;DHT22;34646;47.964;7.982;2023-12-20T08:47:28;15.30;94.70
47368;DHT22;34646;47.964;7.982;2023-12-20T08:53:29;15.00;94.70
47368;DHT22;34646;47.964;7.982;2023-12-20T08:59:29;15.30;94.70
47368;DHT22;34646;47.964;7.982;2023-12-20T09:05:30;14.90;94.70
47368;DHT22;34646;47.964;7.982;2023-12-20T09:11:31;15.20;94.70
47368;DHT22;34646;47.964;7.982;2023-12-20T09:17:32;15.00;94.70
47368;DHT22;34646;47.964;7.982;2023-12-20T09:23:32;15.30;94.80
47368;DHT22;34646;47.964;7.982;2023-12-20T09:29:33;15.20;94.80
47368;DHT22;34646;47.964;7.982;2023-12-20T09:35:34;14.70;94.60
47368;DHT22;34646;47.964;7.982;2023-12-20T09:41:37;14.50;90.70
47368;DHT22;34646;47.964;7.982;2023-12-20T09:47:43;15.20;94.70
47368;DHT22;34646;47.964;7.982;2023-12-20T09:53:44;15.00;94.70
47368;DHT22;34646;47.964;7.982;2023-12-20T09:59:45;15.10;91.60
47368;DHT22;34646;47.964;7.982;2023-12-20T10:05:46;15.10;94.70
47368;DHT22;34646;47.964;7.982;2023-12-20T10:11:49;15.30;94.80
47368;DHT22;34646;47.964;7.982;2023-12-20T10:17:50;15.20;94.80
47368;DHT22;34646;47.964;7.982;2023-12-20T10:23:51;14.90;92.20
47368;DHT22;34646;47.964;7.982;2023-12-20T10:29:52;14.90;94.70
47368;DHT22;34646;47.964;7.982;2023-12-20T10:41:54;14.50;94.60
47368;DHT22;34646;47.964;7.982;2023-12-20T10:47:56;14.70;92.40
47368;DHT22;34646;47.964;7.982;2023-12-20T10:53:59;14.50;94.60
47368;DHT22;34646;47.964;7.982;2023-12-20T11:00:01;15.30;94.80
47368;DHT22;34646;47.964;7.982;2023-12-20T11:12:53;14.80;94.50
47368;DHT22;34646;47.964;7.982;2023-12-20T11:18:55;15.30;94.60
47368;DHT22;34646;47.964;7.982;2023-12-20T11:25:10;14.80;94.50
47368;DHT22;34646;47.964;7.982;2023-12-20T11:31:14;15.30;93.80
47368;DHT22;34646;47.964;7.982;2023-12-20T11:43:35;15.80;88.70
47368;DHT22;34646;47.964;7.982;2023-12-20T11:49:36;15.10;94.10
47368;DHT22;34646;47.964;7.982;2023-12-20T11:55:37;15.80;94.30
47368;DHT22;34646;47.964;7.982;2023-12-20T12:01:37;15.30;94.10
47368;DHT22;34646;47.964;7.982;2023-12-20T12:13:39;15.50;94.10
47368;DHT22;34646;47.964;7.982;2023-12-20T12:19:41;16.00;91.20
47368;DHT22;34646;47.964;7.982;2023-12-20T12:25:42;15.70;94.10
47368;DHT22;34646;47.964;7.982;2023-12-20T12:31:42;16.00;94.00
47368;DHT22;34646;47.964;7.982;2023-12-20T12:37:43;16.00;93.20
47368;DHT22;34646;47.964;7.982;2023-12-20T12:43:44;15.80;93.80
47368;DHT22;34646;47.964;7.982;2023-12-20T12:49:44;15.90;91.00
47368;DHT22;34646;47.964;7.982;2023-12-20T13:01:46;15.70;93.60
47368;DHT22;34646;47.964;7.982;2023-12-20T13:07:47;16.30;93.80
47368;DHT22;34646;47.964;7.982;2023-12-20T13:19:49;16.00;93.70
47368;DHT22;34646;47.964;7.982;2023-12-20T13:31:51;16.30;93.70
47368;DHT22;34646;47.964;7.982;2023-12-20T13:37:52;15.90;93.60
47368;DHT22;34646;47.964;7.982;2023-12-20T13:43:52;16.00;93.60
47368;DHT22;34646;47.964;7.982;2023-12-20T13:49:54;16.20;93.60
47368;DHT22;34646;47.964;7.982;2023-12-20T13:55:56;16.00;93.40
47368;DHT22;34646;47.964;7.982;2023-12-20T14:01:58;16.40;91.80
47368;DHT22;34646;47.964;7.982;2023-12-20T14:14:00;16.20;93.40
47368;DHT22;34646;47.964;7.982;2023-12-20T14:20:02;15.80;90.00
47368;DHT22;34646;47.964;7.982;2023-12-20T14:26:04;16.20;93.30
47368;DHT22;34646;47.964;7.982;2023-12-20T14:32:05;15.90;93.20
47368;DHT22;34646;47.964;7.982;2023-12-20T14:38:06;16.20;93.30
47368;DHT22;34646;47.964;7.982;2023-12-20T14:44:07;15.80;93.20
47368;DHT22;34646;47.964;7.982;2023-12-20T14:50:08;15.50;93.20
47368;DHT22;34646;47.964;7.982;2023-12-20T15:02:10;16.10;93.30
47368;DHT22;34646;47.964;7.982;2023-12-20T15:14:11;15.90;93.20
47368;DHT22;34646;47.964;7.982;2023-12-20T15:20:15;16.20;93.00
47368;DHT22;34646;47.964;7.982;2023-12-20T15:32:17;16.10;93.20
47368;DHT22;34646;47.964;7.982;2023-12-20T15:38:19;15.80;93.10
47368;DHT22;34646;47.964;7.982;2023-12-20T15:56:22;16.60;93.20
47368;DHT22;34646;47.964;7.982;2023-12-20T16:02:22;16.60;93.10
47368;DHT22;34646;47.964;7.982;2023-12-20T16:08:23;16.30;92.40
47368;DHT22;34646;47.964;7.982;2023-12-20T16:14:24;16.60;93.00
47368;DHT22;34646;47.964;7.982;2023-12-20T16:20:27;16.10;92.90
47368;DHT22;34646;47.964;7.982;2023-12-20T16:26:28;16.20;92.90
47368;DHT22;34646;47.964;7.982;2023-12-20T16:38:29;16.30;92.90
47368;DHT22;34646;47.964;7.982;2023-12-20T16:44:30;16.50;93.00
47368;DHT22;34646;47.964;7.982;2023-12-20T16:50:31;16.40;92.90
47368;DHT22;34646;47.964;7.982;2023-12-20T16:56:32;16.10;88.30
47368;DHT22;34646;47.964;7.982;2023-12-20T17:02:33;16.10;92.80
47368;DHT22;34646;47.964;7.982;2023-12-20T17:08:35;16.70;93.00
47368;DHT22;34646;47.964;7.982;2023-12-20T17:14:37;16.80;93.20
47368;DHT22;34646;47.964;7.982;2023-12-20T17:20:37;16.60;93.20
47368;DHT22;34646;47.964;7.982;2023-12-20T17:26:38;16.30;93.20
47368;DHT22;34646;47.964;7.982;2023-12-20T17:32:39;16.00;93.10
47368;DHT22;34646;47.964;7.982;2023-12-20T17:38:40;16.20;93.30
47368;DHT22;34646;47.964;7.982;2023-12-20T17:44:41;16.40;93.40
47368;DHT22;34646;47.964;7.982;2023-12-20T17:50:42;16.50;93.70
47368;DHT22;34646;47.964;7.982;2023-12-20T17:56:43;16.40;90.10
47368;DHT22;34646;47.964;7.982;2023-12-20T18:02:43;16.40;93.80
47368;DHT22;34646;47.964;7.982;2023-12-20T18:08:44;16.60;93.80
47368;DHT22;34646;47.964;7.982;2023-12-20T18:14:45;16.50;93.90
47368;DHT22;34646;47.964;7.982;2023-12-20T18:20:46;16.50;90.50
47368;DHT22;34646;47.964;7.982;2023-12-20T18:26:47;16.50;92.80
47368;DHT22;34646;47.964;7.982;2023-12-20T18:38:48;16.20;93.70
47368;DHT22;34646;47.964;7.982;2023-12-20T18:44:50;16.30;89.70
47368;DHT22;34646;47.964;7.982;2023-12-20T18:50:51;16.00;93.60
47368;DHT22;34646;47.964;7.982;2023-12-20T18:56:51;16.30;93.70
47368;DHT22;34646;47.964;7.982;2023-12-20T19:08:58;16.60;93.70
47368;DHT22;34646;47.964;7.982;2023-12-20T19:20:59;16.30;93.60
47368;DHT22;34646;47.964;7.982;2023-12-20T19:27:00;15.90;93.50
47368;DHT22;34646;47.964;7.982;2023-12-20T19:33:01;16.00;93.50
47368;DHT22;34646;47.964;7.982;2023-12-20T19:39:02;16.70;93.70
47368;DHT22;34646;47.964;7.982;2023-12-20T19:45:04;16.10;93.60
47368;DHT22;34646;47.964;7.982;2023-12-20T19:51:05;16.50;93.70
47368;DHT22;34646;47.964;7.982;2023-12-20T20:03:07;16.80;93.60
47368;DHT22;34646;47.964;7.982;2023-12-20T20:09:07;16.90;93.80
47368;DHT22;34646;47.964;7.982;2023-12-20T20:15:08;16.20;93.70
47368;DHT22;34646;47.964;7.982;2023-12-20T20:21:09;16.20;93.70
47368;DHT22;34646;47.964;7.982;2023-12-20T20:27:10;16.30;93.80
47368;DHT22;34646;47.964;7.982;2023-12-20T20:33:11;16.30;93.80
47368;DHT22;34646;47.964;7.982;2023-12-20T20:39:11;16.40;93.80
47368;DHT22;34646;47.964;7.982;2023-12-20T20:45:13;16.00;92.90
47368;DHT22;34646;47.964;7.982;2023-12-20T20:51:14;16.40;93.90
47368;DHT22;34646;47.964;7.982;2023-12-20T20:57:14;16.30;93.90
47368;DHT22;34646;47.964;7.982;2023-12-20T21:03:15;16.40;94.00
47368;DHT22;34646;47.964;7.982;2023-12-20T21:09:16;16.00;93.90
47368;DHT22;34646;47.964;7.982;2023-12-20T21:15:16;16.30;94.00
47368;DHT22;34646;47.964;7.982;2023-12-20T21:21:17;15.70;93.90
47368;DHT22;34646;47.964;7.982;2023-12-20T21:27:18;15.80;93.90
47368;DHT22;34646;47.964;7.982;2023-12-20T21:33:19;16.30;94.00
47368;DHT22;34646;47.964;7.982;2023-12-20T21:39:19;16.20;93.90
47368;DHT22;34646;47.964;7.982;2023-12-20T21:51:21;16.00;93.90
47368;DHT22;34646;47.964;7.982;2023-12-20T21:57:22;16.10;94.00
47368;DHT22;34646;47.964;7.982;2023-12-20T22:03:22;15.90;93.90
47368;DHT22;34646;47.964;7.982;2023-12-20T22:09:23;16.00;94.00
47368;DHT22;34646;47.964;7.982;2023-12-20T22:15:24;15.60;93.90
47368;DHT22;34646;47.964;7.982;2023-12-20T22:21:25;16.20;94.10
47368;DHT22;34646;47.964;7.982;2023-12-20T22:27:26;15.90;94.00
47368;DHT22;34646;47.964;7.982;2023-12-20T22:33:26;15.70;94.00
47368;DHT22;34646;47.964;7.982;2023-12-20T22:39:27;15.60;93.90
47368;DHT22;34646;47.964;7.982;2023-12-20T22:45:27;15.70;93.90
47368;DHT22;34646;47.964;7.982;2023-12-20T22:51:28;15.80;93.90
47368;DHT22;34646;47.964;7.982;2023-12-20T22:57:34;15.60;93.80
47368;DHT22;34646;47.964;7.982;2023-12-20T23:03:35;16.00;93.90
47368;DHT22;34646;47.964;7.982;2023-12-20T23:09:37;15.70;93.90
47368;DHT22;34646;47.964;7.982;2023-12-20T23:15:39;15.30;91.30
47368;DHT22;34646;47.964;7.982;2023-12-20T23:21:39;15.40;93.80
47368;DHT22;34646;47.964;7.982;2023-12-20T23:27:40;16.30;88.90
47368;DHT22;34646;47.964;7.982;2023-12-20T23:33:42;15.50;90.20
47368;DHT22;34646;47.964;7.982;2023-12-20T23:39:45;15.30;93.70
47368;DHT22;34646;47.964;7.982;2023-12-20T23:45:46;15.30;93.70
47368;DHT22;34646;47.964;7.982;2023-12-20T23:51:47;15.70;93.80
47368;DHT22;34646;47.964;7.982;2023-12-20T23:57:48;15.50;93.70
